Main page
METAR-TAF:

METAR-TAF

Airports :

Schenck Field

Clarinda, Iowa, United States

latitude: 40-43N, longitude: 095-02W, elevation: 994 ft

Current weather observation

The report was made 5 minutes ago, at 03:55 UTC
Calm wind
Temperature 64°F
Humidity 100%
Pressure 29.89 in. Hg
Visibility: 2 miles
Few clouds at a height of 2000 ft
Few clouds at a height of 4400 ft
mist

METAR: KICL 260355Z AUTO 00000KT 2SM BR FEW020 FEW044 18/18 A2989 RMK AO2 VIS 3/4V5

Time: 23:00 (04:00 UTC)


TAF: missing

Weather observations and forecasts of more than 4000 airports (METAR and TAF reports).

The available stations are represented by yellow and red dots on the map.

Hover mouse over dot to see the name of the station.

Then click to see weather observations and forecasts.

To change the map : click on the green buttons with a black cross to zoom in, on the green button with a dash to zoom out, or on the green arrows for adjacent maps.


METAR-TAF: